createdAt,value
2018-02-03T00:00:05.243Z,2.94
2018-02-03T00:02:36.004Z,2.92
2018-02-03T00:05:06.774Z,2.96
2018-02-03T00:07:37.545Z,2.95
2018-02-03T00:10:08.291Z,2.94
2018-02-03T00:12:39.060Z,2.98
2018-02-03T00:15:09.810Z,3.00
2018-02-03T00:17:40.589Z,2.90
2018-02-03T00:20:11.354Z,2.97
2018-02-03T00:22:42.123Z,2.94
2018-02-03T00:25:12.905Z,2.92
2018-02-03T00:27:43.664Z,2.90
2018-02-03T00:30:14.604Z,2.91
2018-02-03T00:32:45.351Z,2.91
2018-02-03T00:35:16.087Z,2.93
2018-02-03T00:37:46.868Z,2.93
2018-02-03T00:40:17.604Z,2.95
2018-02-03T00:42:48.388Z,2.92
2018-02-03T00:45:19.132Z,2.96
2018-02-03T00:47:49.882Z,2.90
2018-02-03T00:50:20.649Z,2.86
2018-02-03T00:52:51.436Z,2.90
2018-02-03T00:55:22.230Z,2.88
2018-02-03T00:57:52.969Z,2.81
2018-02-03T01:00:23.750Z,2.85
2018-02-03T01:02:54.542Z,2.84
2018-02-03T01:05:25.367Z,2.89
2018-02-03T01:07:56.163Z,2.79
2018-02-03T01:10:26.917Z,2.77
2018-02-03T01:12:57.716Z,2.78
2018-02-03T01:15:28.476Z,2.72
2018-02-03T01:17:59.273Z,2.69
2018-02-03T01:20:30.046Z,2.65
2018-02-03T01:23:00.837Z,2.63
2018-02-03T01:25:31.597Z,2.67
2018-02-03T01:28:02.398Z,2.65
2018-02-03T01:30:33.180Z,2.67
2018-02-03T01:33:03.997Z,2.76
2018-02-03T01:35:34.780Z,2.71
2018-02-03T01:38:05.578Z,2.72
2018-02-03T01:40:36.334Z,2.67
2018-02-03T01:43:07.108Z,2.63
2018-02-03T01:45:37.899Z,2.68
2018-02-03T01:48:08.676Z,2.65
2018-02-03T01:50:39.482Z,2.69
2018-02-03T01:53:10.306Z,2.69
2018-02-03T01:55:41.087Z,2.64
2018-02-03T01:58:11.888Z,2.59
2018-02-03T02:00:42.668Z,2.54
2018-02-03T02:03:13.477Z,2.58
2018-02-03T02:05:44.248Z,2.57
2018-02-03T02:08:15.021Z,2.62
2018-02-03T02:10:45.793Z,2.55
2018-02-03T02:13:16.555Z,2.52
2018-02-03T02:15:47.322Z,2.51
2018-02-03T02:18:18.120Z,2.47
2018-02-03T02:20:48.869Z,2.48
2018-02-03T02:23:19.624Z,2.41
2018-02-03T02:25:50.360Z,2.39
2018-02-03T02:28:28.111Z,2.43
2018-02-03T02:30:58.880Z,2.40
2018-02-03T02:33:29.669Z,2.46
2018-02-03T02:36:00.420Z,2.44
2018-02-03T02:38:31.188Z,2.37
2018-02-03T02:41:01.948Z,2.39
2018-02-03T02:43:32.735Z,2.36
2018-02-03T02:46:03.497Z,2.36
2018-02-03T02:48:34.263Z,2.36
2018-02-03T02:51:05.029Z,2.38
2018-02-03T02:53:35.808Z,2.33
2018-02-03T02:56:06.561Z,2.29
2018-02-03T02:58:37.313Z,2.31
2018-02-03T03:01:08.053Z,2.24
2018-02-03T03:03:38.813Z,2.25
2018-02-03T03:06:09.575Z,2.26
2018-02-03T03:08:40.364Z,2.20
2018-02-03T03:11:11.136Z,2.24
2018-02-03T03:13:41.922Z,2.21
2018-02-03T03:16:12.676Z,2.27
2018-02-03T03:18:43.484Z,2.17
2018-02-03T03:21:14.269Z,2.29
2018-02-03T03:23:45.064Z,2.24
2018-02-03T03:26:15.821Z,2.30
2018-02-03T03:28:46.608Z,2.23
2018-02-03T03:31:17.366Z,2.24
2018-02-03T03:33:48.170Z,2.19
2018-02-03T03:36:18.952Z,2.23
2018-02-03T03:38:49.744Z,2.25
2018-02-03T03:41:20.526Z,2.29
2018-02-03T03:43:51.304Z,2.29
2018-02-03T03:46:22.098Z,2.25
2018-02-03T03:48:52.916Z,2.35
2018-02-03T03:51:23.684Z,2.30
2018-02-03T03:53:54.461Z,2.26
2018-02-03T03:56:25.247Z,2.25
2018-02-03T03:58:56.040Z,2.26
2018-02-03T04:01:26.799Z,2.30
2018-02-03T04:03:57.588Z,2.34
2018-02-03T04:06:28.360Z,2.35
2018-02-03T04:08:59.133Z,2.34
2018-02-03T04:11:29.884Z,2.32
2018-02-03T04:14:00.686Z,2.34
2018-02-03T04:16:31.458Z,2.31
2018-02-03T04:19:02.252Z,2.32
2018-02-03T04:21:33.044Z,2.40
2018-02-03T04:24:03.837Z,2.35
2018-02-03T04:26:34.607Z,2.40
2018-02-03T04:29:05.366Z,2.34
2018-02-03T04:31:36.137Z,2.34
2018-02-03T04:34:06.916Z,2.30
2018-02-03T04:36:37.664Z,2.33
2018-02-03T04:39:08.415Z,2.34
2018-02-03T04:41:39.164Z,2.31
2018-02-03T04:44:09.944Z,2.27
2018-02-03T04:46:40.700Z,2.30
2018-02-03T04:49:11.492Z,2.31
2018-02-03T04:51:42.248Z,2.32
2018-02-03T04:54:13.040Z,2.27
2018-02-03T04:56:43.792Z,2.25
2018-02-03T04:59:14.593Z,2.22
2018-02-03T05:01:45.356Z,2.16
2018-02-03T05:04:16.123Z,2.17
2018-02-03T05:06:46.872Z,2.18
2018-02-03T05:09:17.645Z,2.19
2018-02-03T05:11:48.410Z,2.13
2018-02-03T05:14:19.194Z,2.04
2018-02-03T05:16:49.951Z,2.00
2018-02-03T05:19:20.737Z,1.86
2018-02-03T05:21:51.491Z,1.80
2018-02-03T05:24:22.431Z,1.77
2018-02-03T05:26:53.218Z,1.75
2018-02-03T05:29:24.000Z,1.75
2018-02-03T05:31:54.750Z,1.68
2018-02-03T05:34:25.577Z,1.73
2018-02-03T05:36:56.341Z,1.74
2018-02-03T05:39:27.121Z,1.77
2018-02-03T05:41:57.852Z,1.78
2018-02-03T05:44:29.594Z,1.88
2018-02-03T05:47:00.356Z,1.94
2018-02-03T05:49:31.134Z,2.04
2018-02-03T05:52:01.897Z,1.97
2018-02-03T05:54:32.655Z,1.99
2018-02-03T05:57:03.400Z,2.01
2018-02-03T05:59:34.150Z,2.00
2018-02-03T06:02:04.914Z,2.06
2018-02-03T06:04:35.682Z,2.05
2018-02-03T06:07:06.429Z,2.05
2018-02-03T06:09:37.185Z,2.06
2018-02-03T06:12:07.955Z,2.06
2018-02-03T06:14:38.739Z,2.02
2018-02-03T06:17:09.494Z,2.08
2018-02-03T06:19:40.280Z,2.00
2018-02-03T06:22:11.050Z,2.02
2018-02-03T06:24:41.827Z,2.03
2018-02-03T06:27:12.581Z,2.05
2018-02-03T06:29:43.353Z,2.10
2018-02-03T06:32:14.108Z,2.07
2018-02-03T06:34:44.872Z,2.21
2018-02-03T06:37:15.693Z,2.15
2018-02-03T06:39:46.472Z,2.09
2018-02-03T06:42:17.213Z,2.07
2018-02-03T06:44:47.963Z,2.04
2018-02-03T06:47:18.725Z,2.13
2018-02-03T06:49:49.517Z,2.02
2018-02-03T06:52:20.257Z,2.00
2018-02-03T06:54:51.022Z,1.96
2018-02-03T06:57:21.776Z,1.93
2018-02-03T06:59:52.600Z,1.94
2018-02-03T07:02:23.329Z,1.98
2018-02-03T07:04:54.108Z,2.05
2018-02-03T07:07:24.888Z,2.05
2018-02-03T07:09:55.677Z,1.95
2018-02-03T07:12:26.455Z,1.91
2018-02-03T07:14:57.239Z,1.88
2018-02-03T07:17:28.012Z,1.92
2018-02-03T07:19:58.768Z,1.93
2018-02-03T07:22:29.516Z,1.99
2018-02-03T07:25:00.292Z,1.95
2018-02-03T07:27:31.025Z,1.93
2018-02-03T07:30:01.832Z,2.01
2018-02-03T07:32:32.594Z,2.00
2018-02-03T07:35:03.365Z,2.05
2018-02-03T07:37:34.157Z,2.14
2018-02-03T07:40:04.932Z,2.17
2018-02-03T07:42:35.688Z,2.21
2018-02-03T07:45:06.448Z,2.28
2018-02-03T07:47:37.193Z,2.28
2018-02-03T07:50:07.960Z,2.30
2018-02-03T07:52:38.711Z,2.27
2018-02-03T07:55:09.487Z,2.32
2018-02-03T07:57:40.268Z,2.32
2018-02-03T08:00:11.034Z,2.29
2018-02-03T08:02:41.823Z,2.32
2018-02-03T08:05:12.764Z,2.31
2018-02-03T08:07:43.531Z,2.33
2018-02-03T08:10:14.328Z,2.18
2018-02-03T08:12:45.110Z,2.44
2018-02-03T08:15:15.930Z,2.50
2018-02-03T08:17:46.695Z,2.53
2018-02-03T08:20:17.525Z,2.58
2018-02-03T08:22:48.317Z,2.57
2018-02-03T08:25:19.104Z,2.50
2018-02-03T08:27:49.865Z,2.62
2018-02-03T08:30:20.684Z,2.66
2018-02-03T08:32:51.470Z,2.66
2018-02-03T08:35:22.284Z,2.78
2018-02-03T08:37:53.080Z,2.87
2018-02-03T08:40:23.865Z,3.00
2018-02-03T08:42:54.717Z,3.14
2018-02-03T08:45:25.485Z,3.27
2018-02-03T08:47:56.240Z,3.40
2018-02-03T08:50:27.032Z,3.31
2018-02-03T08:52:57.828Z,3.31
2018-02-03T08:55:28.615Z,3.37
2018-02-03T08:57:59.388Z,3.30
2018-02-03T09:00:30.207Z,3.24
2018-02-03T09:03:00.933Z,3.23
2018-02-03T09:05:31.708Z,3.00
2018-02-03T09:08:02.468Z,2.82
2018-02-03T09:10:33.237Z,2.81
2018-02-03T09:13:03.993Z,2.80
2018-02-03T09:15:34.733Z,2.80
2018-02-03T09:18:05.491Z,2.93
2018-02-03T09:20:36.263Z,3.16
2018-02-03T09:23:07.016Z,3.32
2018-02-03T09:25:37.767Z,3.39
2018-02-03T09:28:08.513Z,3.61
2018-02-03T09:30:39.292Z,3.87
2018-02-03T09:33:10.460Z,3.98
2018-02-03T09:35:41.640Z,4.29
2018-02-03T09:38:12.405Z,4.44
2018-02-03T09:40:43.242Z,4.34
2018-02-03T09:43:13.984Z,4.31
2018-02-03T09:45:44.772Z,4.28
2018-02-03T09:48:15.528Z,4.34
2018-02-03T09:50:46.316Z,4.56
2018-02-03T09:53:17.101Z,4.55
2018-02-03T09:55:47.873Z,4.86
2018-02-03T09:58:18.657Z,4.57
2018-02-03T10:00:49.426Z,4.89
2018-02-03T10:03:20.209Z,4.59
2018-02-03T10:05:50.976Z,4.85
2018-02-03T10:08:21.832Z,4.76
2018-02-03T10:10:52.594Z,4.93
2018-02-03T10:13:23.336Z,5.39
2018-02-03T10:15:54.131Z,5.59
2018-02-03T10:18:24.893Z,5.54
2018-02-03T10:20:55.691Z,5.50
2018-02-03T10:23:26.454Z,5.41
2018-02-03T10:25:57.221Z,5.22
2018-02-03T10:28:27.960Z,5.16
2018-02-03T10:30:58.728Z,5.52
2018-02-03T10:33:29.478Z,5.61
2018-02-03T10:36:00.254Z,5.58
2018-02-03T10:38:31.000Z,5.32
2018-02-03T10:41:01.802Z,5.20
2018-02-03T10:43:32.560Z,5.39
2018-02-03T10:46:03.325Z,5.54
2018-02-03T10:48:34.113Z,5.63
2018-02-03T10:51:04.901Z,5.64
2018-02-03T10:53:35.642Z,5.37
2018-02-03T10:56:06.409Z,5.52
2018-02-03T10:58:37.184Z,5.31
2018-02-03T11:01:07.956Z,5.07
2018-02-03T11:03:38.708Z,5.06
2018-02-03T11:06:09.479Z,5.19
2018-02-03T11:08:40.256Z,5.09
2018-02-03T11:11:11.013Z,4.93
2018-02-03T11:13:41.764Z,5.22
2018-02-03T11:16:12.528Z,5.02
2018-02-03T11:18:43.308Z,5.42
2018-02-03T11:21:14.068Z,5.24
2018-02-03T11:23:44.804Z,5.14
2018-02-03T11:26:15.596Z,5.05
2018-02-03T11:28:46.354Z,5.36
2018-02-03T11:31:17.124Z,5.08
2018-02-03T11:33:47.856Z,5.34
2018-02-03T11:36:18.641Z,5.50
2018-02-03T11:38:49.403Z,5.36
2018-02-03T11:41:20.196Z,5.42
2018-02-03T11:43:50.947Z,5.44
2018-02-03T11:46:21.719Z,5.40
2018-02-03T11:48:52.467Z,5.59
2018-02-03T11:51:23.228Z,5.55
2018-02-03T11:53:53.980Z,5.46
2018-02-03T11:56:24.760Z,5.44
2018-02-03T11:58:55.509Z,5.51
2018-02-03T12:01:26.268Z,5.87
2018-02-03T12:03:57.004Z,6.05
2018-02-03T12:06:27.785Z,6.07
2018-02-03T12:08:58.534Z,5.97
2018-02-03T12:11:29.312Z,6.17
2018-02-03T12:14:00.052Z,6.09
2018-02-03T12:16:30.838Z,6.00
2018-02-03T12:19:01.584Z,5.59
2018-02-03T12:21:32.351Z,5.67
2018-02-03T12:24:03.144Z,5.83
2018-02-03T12:26:33.917Z,5.76
2018-02-03T12:29:05.735Z,5.84
2018-02-03T12:31:37.336Z,5.88
2018-02-03T12:34:08.090Z,5.76
2018-02-03T12:36:38.838Z,5.20
2018-02-03T12:39:09.750Z,5.27
2018-02-03T12:41:40.511Z,5.12
2018-02-03T12:44:11.272Z,5.06
2018-02-03T12:46:42.045Z,5.22
2018-02-03T12:49:12.819Z,5.44
2018-02-03T12:51:43.572Z,5.53
2018-02-03T12:54:14.338Z,5.27
2018-02-03T12:56:45.096Z,5.25
2018-02-03T12:59:15.874Z,5.14
2018-02-03T13:01:46.644Z,5.26
2018-02-03T13:04:17.424Z,4.98
2018-02-03T13:06:48.224Z,4.93
2018-02-03T13:09:19.009Z,4.65
2018-02-03T13:11:49.792Z,4.76
2018-02-03T13:14:20.596Z,4.87
2018-02-03T13:16:51.369Z,4.78
2018-02-03T13:19:22.166Z,4.74
2018-02-03T13:21:52.943Z,4.69
2018-02-03T13:24:23.752Z,4.79
2018-02-03T13:26:54.517Z,4.71
2018-02-03T13:29:25.312Z,4.62
2018-02-03T13:31:56.091Z,4.64
2018-02-03T13:34:26.871Z,4.58
2018-02-03T13:36:57.651Z,4.49
2018-02-03T13:39:28.448Z,4.50
2018-02-03T13:41:59.228Z,4.39
2018-02-03T13:44:30.027Z,4.40
2018-02-03T13:47:00.784Z,4.39
2018-02-03T13:49:31.574Z,4.47
2018-02-03T13:52:02.353Z,4.48
2018-02-03T13:54:33.147Z,4.72
2018-02-03T13:57:03.910Z,4.79
2018-02-03T13:59:34.711Z,4.88
2018-02-03T14:02:05.492Z,4.99
2018-02-03T14:04:36.884Z,5.11
2018-02-03T14:07:07.683Z,5.13
2018-02-03T14:09:38.465Z,5.15
2018-02-03T14:12:09.245Z,5.15
2018-02-03T14:14:40.045Z,4.77
2018-02-03T14:17:10.814Z,4.51
2018-02-03T14:19:41.603Z,4.56
2018-02-03T14:22:12.385Z,4.67
2018-02-03T14:24:47.177Z,4.74
2018-02-03T14:27:17.940Z,4.79
2018-02-03T14:29:48.730Z,4.66
2018-02-03T14:32:19.523Z,4.83
2018-02-03T14:34:50.321Z,4.71
2018-02-03T14:37:21.095Z,4.69
2018-02-03T14:39:51.873Z,4.78
2018-02-03T14:42:22.665Z,4.69
2018-02-03T14:44:53.445Z,4.77
2018-02-03T14:47:24.282Z,4.88
2018-02-03T14:49:55.051Z,4.89
2018-02-03T14:52:25.893Z,5.02
2018-02-03T14:54:56.655Z,5.02
2018-02-03T14:57:27.413Z,4.73
2018-02-03T14:59:58.170Z,4.50
2018-02-03T15:02:28.962Z,4.25
2018-02-03T15:05:01.735Z,4.11
2018-02-03T15:07:32.557Z,4.17
2018-02-03T15:10:03.955Z,3.98
2018-02-03T15:12:34.737Z,4.07
2018-02-03T15:15:05.501Z,3.96
2018-02-03T15:17:36.297Z,4.04
2018-02-03T15:20:07.066Z,4.06
2018-02-03T15:22:37.842Z,4.06
2018-02-03T15:25:08.609Z,3.92
2018-02-03T15:27:39.428Z,3.92
2018-02-03T15:30:10.195Z,3.99
2018-02-03T15:32:40.999Z,3.91
2018-02-03T15:35:11.774Z,3.83
2018-02-03T15:37:42.558Z,3.82
2018-02-03T15:40:13.335Z,3.84
2018-02-03T15:42:44.132Z,3.81
2018-02-03T15:45:14.914Z,3.84
2018-02-03T15:47:45.711Z,3.93
2018-02-03T15:50:16.489Z,3.78
2018-02-03T15:52:47.361Z,3.65
2018-02-03T15:55:18.194Z,3.59
2018-02-03T15:57:49.028Z,3.48
2018-02-03T16:00:19.852Z,3.33
2018-02-03T16:02:50.706Z,3.28
2018-02-03T16:05:21.506Z,3.30
2018-02-03T16:07:52.352Z,3.17
2018-02-03T16:10:23.079Z,3.13
2018-02-03T16:12:53.937Z,3.10
2018-02-03T16:15:24.762Z,2.94
2018-02-03T16:17:55.523Z,2.92
2018-02-03T16:20:26.284Z,2.92
2018-02-03T16:22:57.044Z,2.88
2018-02-03T16:25:27.780Z,2.83
2018-02-03T16:27:58.573Z,2.84
2018-02-03T16:30:29.318Z,2.81
2018-02-03T16:33:00.089Z,2.83
2018-02-03T16:35:30.856Z,2.78
2018-02-03T16:38:01.625Z,2.77
2018-02-03T16:40:32.400Z,2.73
2018-02-03T16:43:03.161Z,2.62
2018-02-03T16:45:33.926Z,2.56
2018-02-03T16:48:04.713Z,2.51
2018-02-03T16:50:35.457Z,2.44
2018-02-03T16:53:06.237Z,2.43
2018-02-03T16:55:36.987Z,2.28
2018-02-03T16:58:07.824Z,2.41
2018-02-03T17:00:38.577Z,2.41
2018-02-03T17:03:09.336Z,2.39
2018-02-03T17:05:40.155Z,2.38
2018-02-03T17:08:10.953Z,2.33
2018-02-03T17:10:41.733Z,2.28
2018-02-03T17:13:12.527Z,2.29
2018-02-03T17:15:43.281Z,2.23
2018-02-03T17:18:14.077Z,2.25
2018-02-03T17:20:44.861Z,2.28
2018-02-03T17:23:15.672Z,2.19
2018-02-03T17:25:46.437Z,2.22
2018-02-03T17:28:17.216Z,2.18
2018-02-03T17:30:47.973Z,2.19
2018-02-03T17:33:18.766Z,2.18
2018-02-03T17:35:49.540Z,2.11
2018-02-03T17:38:26.563Z,2.14
2018-02-03T17:40:57.356Z,2.15
2018-02-03T17:43:28.153Z,2.13
2018-02-03T17:46:05.057Z,2.10
2018-02-03T17:48:35.861Z,2.14
2018-02-03T17:51:06.624Z,2.12
2018-02-03T17:53:37.421Z,2.13
2018-02-03T17:56:14.359Z,2.08
2018-02-03T17:58:45.155Z,1.99
2018-02-03T18:01:15.926Z,2.05
2018-02-03T18:03:46.751Z,2.02
2018-02-03T18:06:17.589Z,1.98
2018-02-03T18:08:48.396Z,2.00
2018-02-03T18:11:19.181Z,2.06
2018-02-03T18:13:49.977Z,2.04
2018-02-03T18:16:20.748Z,2.02
2018-02-03T18:18:51.534Z,2.00
2018-02-03T18:21:22.333Z,1.94
2018-02-03T18:23:53.113Z,1.96
2018-02-03T18:26:23.886Z,2.03
2018-02-03T18:28:54.697Z,1.98
2018-02-03T18:31:25.484Z,2.02
2018-02-03T18:33:56.286Z,2.10
2018-02-03T18:36:27.055Z,2.05
2018-02-03T18:38:58.152Z,2.05
2018-02-03T18:41:28.921Z,2.02
2018-02-03T18:43:59.675Z,2.04
2018-02-03T18:46:30.435Z,2.00
2018-02-03T18:49:01.228Z,2.00
2018-02-03T18:51:31.984Z,2.07
2018-02-03T18:54:02.751Z,2.01
2018-02-03T18:56:33.531Z,1.92
2018-02-03T18:59:04.452Z,1.91
2018-02-03T19:01:36.264Z,1.94
2018-02-03T19:04:07.052Z,1.94
2018-02-03T19:06:37.816Z,2.00
2018-02-03T19:09:15.728Z,1.97
2018-02-03T19:11:46.553Z,1.89
2018-02-03T19:14:17.317Z,1.92
2018-02-03T19:16:48.076Z,1.92
2018-02-03T19:19:18.939Z,1.87
2018-02-03T19:21:49.684Z,1.88
2018-02-03T19:24:20.549Z,1.89
2018-02-03T19:26:51.305Z,1.86
2018-02-03T19:29:22.090Z,1.83
2018-02-03T19:31:52.834Z,1.86
2018-02-03T19:34:23.613Z,1.78
2018-02-03T19:36:54.404Z,1.85
2018-02-03T19:39:25.180Z,1.82
2018-02-03T19:41:55.993Z,1.78
2018-02-03T19:44:26.822Z,1.82
2018-02-03T19:46:57.655Z,1.77
2018-02-03T19:49:28.486Z,1.67
2018-02-03T19:51:59.296Z,1.73
2018-02-03T19:54:30.102Z,1.64
2018-02-03T19:57:00.890Z,1.62
2018-02-03T19:59:31.682Z,1.56
2018-02-03T20:02:02.577Z,1.57
2018-02-03T20:04:33.398Z,1.56
2018-02-03T20:07:04.174Z,1.53
2018-02-03T20:09:34.998Z,1.56
2018-02-03T20:12:05.812Z,1.55
2018-02-03T20:14:36.608Z,1.56
2018-02-03T20:17:07.417Z,1.55
2018-02-03T20:19:38.316Z,1.58
2018-02-03T20:22:09.104Z,1.57
2018-02-03T20:24:39.949Z,1.54
2018-02-03T20:27:10.717Z,1.54
2018-02-03T20:29:41.498Z,1.63
2018-02-03T20:32:12.384Z,1.59
2018-02-03T20:34:43.156Z,1.55
2018-02-03T20:37:13.916Z,1.58
2018-02-03T20:39:44.694Z,1.60
2018-02-03T20:42:15.504Z,1.73
2018-02-03T20:44:46.269Z,1.76
2018-02-03T20:47:17.154Z,1.78
2018-02-03T20:49:47.991Z,1.81
2018-02-03T20:52:18.878Z,1.87
2018-02-03T20:54:49.649Z,1.85
2018-02-03T20:57:20.473Z,1.78
2018-02-03T20:59:51.305Z,1.78
2018-02-03T21:02:22.120Z,1.84
2018-02-03T21:04:52.897Z,1.83
2018-02-03T21:07:23.676Z,1.84
2018-02-03T21:09:54.460Z,1.87
2018-02-03T21:12:25.281Z,1.86
2018-02-03T21:14:56.145Z,1.81
2018-02-03T21:17:26.920Z,1.83
2018-02-03T21:19:57.709Z,1.85
2018-02-03T21:22:28.472Z,1.80
2018-02-03T21:24:59.439Z,1.79
2018-02-03T21:27:30.265Z,1.76
2018-02-03T21:30:01.034Z,1.75
2018-02-03T21:32:31.816Z,1.79
2018-02-03T21:35:02.731Z,1.77
2018-02-03T21:37:33.537Z,1.74
2018-02-03T21:40:04.396Z,1.71
2018-02-03T21:42:35.232Z,1.66
2018-02-03T21:45:07.089Z,1.62
2018-02-03T21:47:37.875Z,1.61
2018-02-03T21:50:08.727Z,1.59
2018-02-03T21:52:39.538Z,1.58
2018-02-03T21:55:10.368Z,1.53
2018-02-03T21:57:41.135Z,1.51
2018-02-03T22:00:12.001Z,1.50
2018-02-03T22:02:42.878Z,1.52
2018-02-03T22:05:13.692Z,1.59
2018-02-03T22:07:44.608Z,1.55
2018-02-03T22:10:15.463Z,1.56
2018-02-03T22:12:47.290Z,1.53
2018-02-03T22:15:18.049Z,1.48
2018-02-03T22:17:48.850Z,1.57
2018-02-03T22:20:19.709Z,1.47
2018-02-03T22:22:50.529Z,1.49
2018-02-03T22:25:21.359Z,1.49
2018-02-03T22:27:52.227Z,1.49
2018-02-03T22:30:23.021Z,1.48
2018-02-03T22:32:53.797Z,1.47
2018-02-03T22:38:23.796Z,1.43
2018-02-03T22:40:54.587Z,1.45
2018-02-03T22:43:25.360Z,1.38
2018-02-03T22:45:56.139Z,1.42
2018-02-03T22:48:26.960Z,1.41
2018-02-03T22:50:57.727Z,1.37
2018-02-03T22:53:28.499Z,1.38
2018-02-03T22:55:59.261Z,1.37
2018-02-03T22:58:30.028Z,1.39
2018-02-03T23:01:07.085Z,1.38
2018-02-03T23:03:37.820Z,1.44
2018-02-03T23:06:08.612Z,1.38
2018-02-03T23:08:39.381Z,1.34
2018-02-03T23:11:10.137Z,1.32
2018-02-03T23:13:40.920Z,1.29
2018-02-03T23:16:11.680Z,1.39
2018-02-03T23:18:42.533Z,1.34
2018-02-03T23:21:13.248Z,1.34
2018-02-03T23:23:44.007Z,1.37
2018-02-03T23:26:14.744Z,1.35
2018-02-03T23:28:45.481Z,1.25
2018-02-03T23:31:16.216Z,1.33
2018-02-03T23:33:46.962Z,1.23
2018-02-03T23:36:21.736Z,1.20
2018-02-03T23:38:52.476Z,1.21
2018-02-03T23:41:23.262Z,1.18
2018-02-03T23:43:54.016Z,1.22
2018-02-03T23:46:24.776Z,1.17
2018-02-03T23:48:55.521Z,1.19
2018-02-03T23:51:26.260Z,1.15
2018-02-03T23:53:57.018Z,1.15
2018-02-03T23:56:27.796Z,1.10
2018-02-03T23:58:58.563Z,1.13
